Col Jabara, KS

03:12 CST le 24 novembre 2014 (GMT -0600)
McConnell Air Force Base | Change Station
CLOSE
Current Station
Aéroport
Location: McConnell AFB,
Altitude: 1371 ft
Stations météo à proximité

Alt. 1371 ft 37.62 °N, 97.27 °W | Updated 14 minutes ago

Ciel dégagé
Ciel dégagé
38 ° F
Paraît 31 ° F
N
10
Vent Variable Vent de ONO

Aujourd'hui
Haut(e) -- | Bas -- ° F
--% Risque de précip.
Hier
Haut(e) -- | Bas -- ° F
Precip. -- pouce
7:18 AM 5:12 PM
Lune montante, 4% visible
Pression 29.77 pouce
Visibilité 10.0 Miles terrestres
Nuages Ciel dégagé
Refroidissement éolien 31 ° F
Point de rosée 24 ° F
Humidité 57%
Précipitations 0.00 pouce
Profondeur de la couche neigeuse Non disponible.
UV 0 sur 12
Pollen .10 sur 12
Qualité de l'air Non disponible.
Flu Activity Non disponible.
METAR KIAB 240858Z AUTO 30009KT 10SM CLR 03/M05 A2974 RMK AO2 SLP079 T00321046 52018

More Conditions Fewer Conditions

Pression 29.77 pouce
Visibilité 10.0 Miles terrestres
Nuages Ciel dégagé
Refroidissement éolien 31 ° F
Point de rosée 24 ° F
Humidité 57%
Précipitations 0.00 pouce
Profondeur de la couche neigeuse Non disponible.
UV 0 sur 12
Pollen .10 sur 12
Qualité de l'air Non disponible.
Flu Activity Non disponible.
METAR KIAB 240858Z AUTO 30009KT 10SM CLR 03/M05 A2974 RMK AO2 SLP079 T00321046 52018

More Conditions Fewer Conditions

10-Day Weather Forecast

Almanac

Astronomie

Nov. 24, 2014 Lever Coucher
Temps réel
Crépuscule civil
Crépuscule nautique
Crépuscule astronomique
Lune
Durée de lumière visible
Longueur du jour
Tomorrow will be .
, % of the Moon is Illuminated

Extrêmes aujourd'hui

State Highs State Lows

Community

WunderPhotos

Upload Photos

1,773,294 Photos téléchargées !

WunderBlogs® & News

Nearby

Qualité de l'air

  Qualité de l'air Indice de la qualité de l'air Polluant
Not available.

Épaisseur de neige

Station Depth Altitude

Activité sismique

Ville Distance Mag. Time & Date
Minimum magnitude displayed is 2.5.

Températures des eaux côtières

Lieu Température

Stations météo à proximité